Impacts TAF Board
For situational awareness. Not to be used for flight planning purposes.
IDs:

KMEM - Memphis Intl, TN, US

Issued at 1132 UTC 15 Dec 2018
Updated at 1250 UTC 15 Dec 2018
Potential Impact None Slight Moderate High
Time<<16/13Z 16/14Z 16/15Z 16/16Z 16/17Z 16/18Z 16/19Z 16/20Z 16/21Z 16/22Z 16/23Z 17/00Z 17/01Z
Type PRVL PRVL PRVL PRVL PRVL
VIS >6 >6 >6 >6 >6
CIG -- -- 250 250 250
Cover SKC SKC BKN BKN BKN
FltCat VFR VFR VFR VFR VFR
WX -- -- -- -- --
WDir 340 340 310 310 310
WSpd 6 6 5 5 5
WGst -- -- -- -- --
Raw TAF
KMEM 151132Z 1512/1618 32010KT 3SM -RA BR OVC003
  TEMPO 1517/1520 2SM -DZ BR OVC002
  FM152100 34010KT 6SM BR VCSH OVC007
  FM160600 34006KT P6SM OVC012
  FM160900 34006KT P6SM SKC
  FM161500 31005KT P6SM BKN250


METAR Board
Radar Display
Forecast Discussion
For situational awareness. Not to be used for flight planning purposes.